createdAt,value
2022-10-08T00:01:43.252Z,15.68
2022-10-08T00:04:13.668Z,16.07
2022-10-08T00:06:41.814Z,17.57
2022-10-08T00:09:09.945Z,19.17
2022-10-08T00:11:40.791Z,19.50
2022-10-08T00:14:10.167Z,20.42
2022-10-08T00:16:41.962Z,21.50
2022-10-08T00:19:14.993Z,22.00
2022-10-08T00:21:45.557Z,23.02
2022-10-08T00:24:17.067Z,21.25
2022-10-08T00:26:46.195Z,22.95
2022-10-08T00:29:20.999Z,22.50
2022-10-08T00:31:51.338Z,20.17
2022-10-08T00:34:24.241Z,19.92
2022-10-08T00:36:53.855Z,19.33
2022-10-08T00:39:24.071Z,19.52
2022-10-08T00:41:55.762Z,17.43
2022-10-08T00:44:56.199Z,16.27
2022-10-08T00:47:36.510Z,16.60
2022-10-08T00:50:13.307Z,19.05
2022-10-08T00:52:46.167Z,17.83
2022-10-08T00:55:18.382Z,18.40
2022-10-08T00:57:46.686Z,16.48
2022-10-08T01:00:18.508Z,17.95
2022-10-08T01:02:47.352Z,16.33
2022-10-08T01:05:20.689Z,15.77
2022-10-08T01:07:59.456Z,15.57
2022-10-08T01:10:41.348Z,15.60
2022-10-08T01:13:24.372Z,15.13
2022-10-08T01:16:03.000Z,15.45
2022-10-08T01:18:46.728Z,16.48
2022-10-08T01:21:28.585Z,16.20
2022-10-08T01:24:44.429Z,16.40
2022-10-08T01:27:29.359Z,15.77
2022-10-08T01:30:02.422Z,16.65
2022-10-08T01:32:39.927Z,17.10
2022-10-08T01:35:13.936Z,15.32
2022-10-08T01:37:44.968Z,17.30
2022-10-08T01:40:20.257Z,16.90
2022-10-08T01:42:54.034Z,17.27
2022-10-08T01:45:27.851Z,17.23
2022-10-08T01:48:00.364Z,15.68
2022-10-08T01:50:36.871Z,17.00
2022-10-08T01:53:11.456Z,17.52
2022-10-08T01:55:43.420Z,17.55
2022-10-08T01:58:19.256Z,17.20
2022-10-08T02:00:52.138Z,17.73
2022-10-08T02:03:20.287Z,20.27
2022-10-08T02:05:54.440Z,18.85
2022-10-08T02:08:24.425Z,18.77
2022-10-08T02:10:53.816Z,17.13
2022-10-08T02:13:24.424Z,19.95
2022-10-08T02:16:03.654Z,19.38
2022-10-08T02:18:41.476Z,18.05
2022-10-08T02:21:17.165Z,19.25
2022-10-08T02:23:55.187Z,17.75
2022-10-08T02:26:30.814Z,18.73
2022-10-08T02:29:07.751Z,17.08
2022-10-08T02:31:44.711Z,17.58
2022-10-08T02:34:27.137Z,17.33
2022-10-08T02:37:02.384Z,16.60
2022-10-08T02:39:34.060Z,18.02
2022-10-08T02:42:10.280Z,16.00
2022-10-08T02:44:47.165Z,16.92
2022-10-08T02:47:21.280Z,16.63
2022-10-08T02:49:55.908Z,16.88
2022-10-08T02:52:28.261Z,15.45
2022-10-08T02:55:01.322Z,16.70
2022-10-08T02:57:37.530Z,16.52
2022-10-08T03:00:09.356Z,16.05
2022-10-08T03:02:44.006Z,15.60
2022-10-08T03:05:19.069Z,14.77
2022-10-08T03:07:51.416Z,15.95
2022-10-08T03:10:21.899Z,16.52
2022-10-08T03:12:50.748Z,16.55
2022-10-08T03:15:20.717Z,14.93
2022-10-08T03:17:49.996Z,15.93
2022-10-08T03:20:18.104Z,15.50
2022-10-08T03:22:46.729Z,14.50
2022-10-08T03:25:15.143Z,16.80
2022-10-08T03:27:43.207Z,16.90
2022-10-08T03:30:13.434Z,15.82
2022-10-08T03:32:42.846Z,15.18
2022-10-08T03:35:10.910Z,14.98
2022-10-08T03:37:41.783Z,15.00
2022-10-08T03:40:11.967Z,15.48
2022-10-08T03:42:40.140Z,15.32
2022-10-08T03:45:08.977Z,14.85
2022-10-08T03:47:37.081Z,15.18
2022-10-08T03:50:07.929Z,15.88
2022-10-08T03:52:36.156Z,15.98
2022-10-08T03:55:04.651Z,22.15
2022-10-08T03:57:32.747Z,19.83
2022-10-08T04:00:00.832Z,18.77
2022-10-08T04:02:29.084Z,18.42
2022-10-08T04:04:57.242Z,20.08
2022-10-08T04:07:26.648Z,18.10
2022-10-08T04:09:54.721Z,20.60
2022-10-08T04:12:22.826Z,19.80
2022-10-08T04:14:50.902Z,19.63
2022-10-08T04:17:19.031Z,19.25
2022-10-08T04:19:47.078Z,18.88
2022-10-08T04:22:15.152Z,18.42
2022-10-08T04:24:44.598Z,18.55
2022-10-08T04:27:12.659Z,18.70
2022-10-08T04:29:40.722Z,18.83
2022-10-08T04:32:08.860Z,16.13
2022-10-08T04:34:36.949Z,15.63
2022-10-08T04:37:05.056Z,16.10
2022-10-08T04:39:33.208Z,15.73
2022-10-08T04:42:02.717Z,15.75
2022-10-08T04:44:30.752Z,15.65
2022-10-08T04:46:58.844Z,15.63
2022-10-08T04:49:28.848Z,14.73
2022-10-08T04:51:57.119Z,15.18
2022-10-08T04:54:25.489Z,15.98
2022-10-08T04:56:53.576Z,16.42
2022-10-08T04:59:23.030Z,15.55
2022-10-08T05:01:52.765Z,15.93
2022-10-08T05:04:20.879Z,16.35
2022-10-08T05:06:49.041Z,15.27
2022-10-08T05:09:17.302Z,16.92
2022-10-08T05:11:45.396Z,15.80
2022-10-08T05:14:13.551Z,16.33
2022-10-08T05:16:42.987Z,16.48
2022-10-08T05:19:11.080Z,15.70
2022-10-08T05:21:39.207Z,16.10
2022-10-08T05:24:09.731Z,16.23
2022-10-08T05:29:30.250Z,18.00
2022-10-08T05:32:00.112Z,18.02
2022-10-08T05:34:28.690Z,16.90
2022-10-08T05:36:56.795Z,17.20
2022-10-08T05:39:24.952Z,15.85
2022-10-08T05:41:54.022Z,14.68
2022-10-08T05:44:22.379Z,15.23
2022-10-08T05:46:50.519Z,15.73
2022-10-08T05:49:23.166Z,14.63
2022-10-08T05:51:52.423Z,15.63
2022-10-08T05:54:21.040Z,15.90
2022-10-08T05:56:49.272Z,14.65
2022-10-08T05:59:21.267Z,15.15
2022-10-08T06:01:49.660Z,17.02
2022-10-08T06:04:20.108Z,15.75
2022-10-08T06:06:48.705Z,16.73
2022-10-08T06:09:19.340Z,16.30
2022-10-08T06:11:48.264Z,16.23
2022-10-08T06:14:19.105Z,16.05
2022-10-08T06:16:47.525Z,15.82
2022-10-08T06:19:15.870Z,16.98
2022-10-08T06:21:45.288Z,17.98
2022-10-08T06:24:13.866Z,15.98
2022-10-08T06:26:43.968Z,15.95
2022-10-08T06:29:16.988Z,16.60
2022-10-08T06:31:45.943Z,17.27
2022-10-08T06:34:14.475Z,18.25
2022-10-08T06:36:42.948Z,17.98
2022-10-08T06:39:16.351Z,20.38
2022-10-08T06:41:44.847Z,18.98
2022-10-08T06:44:15.414Z,21.02
2022-10-08T06:46:44.048Z,20.80
2022-10-08T06:49:13.226Z,19.98
2022-10-08T06:51:41.691Z,20.65
2022-10-08T06:54:09.762Z,21.60
2022-10-08T06:56:40.087Z,21.33
2022-10-08T06:59:08.947Z,21.42
2022-10-08T07:01:37.244Z,21.42
2022-10-08T07:04:07.455Z,21.23
2022-10-08T07:06:36.109Z,23.08
2022-10-08T07:09:07.014Z,20.90
2022-10-08T07:11:35.388Z,20.40
2022-10-08T07:14:04.946Z,21.40
2022-10-08T07:16:33.260Z,20.63
2022-10-08T07:19:01.700Z,20.38
2022-10-08T07:21:31.272Z,28.90
2022-10-08T07:24:01.733Z,22.20
2022-10-08T07:26:34.190Z,20.30
2022-10-08T07:29:06.671Z,20.10
2022-10-08T07:31:37.827Z,17.85
2022-10-08T07:34:09.400Z,19.20
2022-10-08T07:36:38.503Z,17.80
2022-10-08T07:39:09.753Z,17.38
2022-10-08T07:41:38.109Z,16.42
2022-10-08T07:44:08.558Z,17.90
2022-10-08T07:46:38.955Z,17.38
2022-10-08T07:49:07.047Z,16.95
2022-10-08T07:51:36.057Z,17.70
2022-10-08T07:54:07.513Z,17.20
2022-10-08T07:56:36.881Z,16.67
2022-10-08T07:59:07.659Z,16.42
2022-10-08T08:01:36.720Z,16.60
2022-10-08T08:04:07.687Z,15.77
2022-10-08T08:06:41.262Z,16.23
2022-10-08T08:09:10.364Z,14.70
2022-10-08T08:11:39.902Z,15.50
2022-10-08T08:14:09.830Z,16.05
2022-10-08T08:16:38.167Z,14.82
2022-10-08T08:19:07.019Z,13.65
2022-10-08T08:21:38.160Z,13.30
2022-10-08T08:24:10.568Z,13.40
2022-10-08T08:26:41.585Z,14.13
2022-10-08T08:29:15.891Z,13.43
2022-10-08T08:31:46.524Z,14.30
2022-10-08T08:34:20.821Z,13.40
2022-10-08T08:36:51.133Z,12.65
2022-10-08T08:39:22.685Z,12.25
2022-10-08T08:42:19.941Z,10.65
2022-10-08T08:44:58.081Z,11.02
2022-10-08T08:47:32.176Z,9.65
2022-10-08T08:50:07.011Z,9.18
2022-10-08T08:52:43.239Z,8.35
2022-10-08T08:55:16.747Z,7.20
2022-10-08T08:57:57.398Z,6.40
2022-10-08T09:00:36.653Z,5.57
2022-10-08T09:03:17.781Z,5.65
2022-10-08T09:05:50.638Z,5.32
2022-10-08T09:08:24.091Z,5.38
2022-10-08T09:10:57.405Z,5.80
2022-10-08T09:13:30.197Z,5.28
2022-10-08T09:16:00.551Z,4.70
2022-10-08T09:18:28.881Z,4.50
2022-10-08T09:20:57.000Z,4.68
2022-10-08T09:23:27.900Z,4.65
2022-10-08T09:26:02.819Z,3.67
2022-10-08T09:28:44.568Z,3.90
2022-10-08T09:31:27.734Z,4.22
2022-10-08T09:34:01.475Z,4.70
2022-10-08T09:36:37.951Z,4.03
2022-10-08T09:39:17.159Z,4.35
2022-10-08T09:41:47.523Z,4.35
2022-10-08T09:44:20.428Z,3.53
2022-10-08T09:47:05.433Z,3.28
2022-10-08T09:49:38.223Z,4.20
2022-10-08T09:52:17.107Z,3.63
2022-10-08T09:54:50.668Z,3.85
2022-10-08T09:57:22.761Z,3.53
2022-10-08T09:59:54.751Z,3.88
2022-10-08T10:02:34.647Z,3.60
2022-10-08T10:05:06.485Z,3.22
2022-10-08T10:07:41.951Z,3.42
2022-10-08T10:10:21.063Z,3.58
2022-10-08T10:12:55.800Z,2.75
2022-10-08T10:15:30.130Z,3.03
2022-10-08T10:18:05.209Z,2.70
2022-10-08T10:20:39.020Z,2.70
2022-10-08T10:23:15.980Z,2.65
2022-10-08T10:25:50.412Z,3.03
2022-10-08T10:28:29.927Z,2.72
2022-10-08T10:31:04.678Z,3.08
2022-10-08T10:33:40.653Z,2.95
2022-10-08T10:36:15.651Z,2.72
2022-10-08T10:38:53.228Z,2.72
2022-10-08T10:41:33.963Z,2.53
2022-10-08T10:44:07.257Z,2.83
2022-10-08T10:46:42.577Z,2.50
2022-10-08T10:49:16.703Z,2.55
2022-10-08T10:52:04.392Z,2.60
2022-10-08T10:55:02.096Z,2.50
2022-10-08T10:57:47.965Z,2.35
2022-10-08T11:00:23.087Z,2.60
2022-10-08T11:03:00.950Z,2.20
2022-10-08T11:05:35.685Z,2.47
2022-10-08T11:08:31.203Z,2.03
2022-10-08T11:11:22.311Z,1.50
2022-10-08T11:14:13.392Z,1.63
2022-10-08T11:16:55.184Z,1.70
2022-10-08T11:19:43.454Z,2.03
2022-10-08T11:22:24.489Z,1.25
2022-10-08T11:25:20.743Z,1.60
2022-10-08T11:28:07.844Z,1.52
2022-10-08T11:30:50.208Z,1.70
2022-10-08T11:33:19.366Z,1.60
2022-10-08T11:36:06.398Z,1.65
2022-10-08T11:38:45.570Z,1.48
2022-10-08T11:41:24.672Z,1.65
2022-10-08T11:43:58.439Z,1.65
2022-10-08T11:46:31.217Z,1.50
2022-10-08T11:49:01.611Z,1.30
2022-10-08T11:51:41.217Z,1.50
2022-10-08T11:54:19.604Z,1.40
2022-10-08T11:56:51.668Z,1.55
2022-10-08T11:59:42.993Z,1.73
2022-10-08T12:02:26.066Z,8.95
2022-10-08T12:04:58.326Z,1.38
2022-10-08T12:07:33.613Z,2.35
2022-10-08T12:10:31.782Z,1.70
2022-10-08T12:13:31.324Z,1.77
2022-10-08T12:16:06.834Z,1.55
2022-10-08T12:18:54.075Z,1.77
2022-10-08T12:21:50.932Z,1.60
2022-10-08T12:24:56.556Z,2.03
2022-10-08T12:27:32.652Z,1.40
2022-10-08T12:30:04.751Z,1.98
2022-10-08T12:32:53.342Z,1.85
2022-10-08T12:35:26.928Z,1.48
2022-10-08T12:38:22.956Z,1.83
2022-10-08T12:41:07.329Z,1.38
2022-10-08T12:43:48.345Z,1.85
2022-10-08T12:46:33.063Z,1.30
2022-10-08T12:49:09.759Z,1.20
2022-10-08T12:51:47.801Z,1.63
2022-10-08T12:54:21.799Z,1.70
2022-10-08T12:56:51.434Z,1.20
2022-10-08T12:59:23.825Z,1.60
2022-10-08T13:01:53.492Z,1.30
2022-10-08T13:04:25.491Z,1.10
2022-10-08T13:06:55.893Z,1.38
2022-10-08T13:09:30.975Z,1.35
2022-10-08T13:12:03.855Z,1.50
2022-10-08T13:14:36.116Z,1.45
2022-10-08T13:17:05.778Z,1.30
2022-10-08T13:19:36.609Z,1.35
2022-10-08T13:22:08.597Z,1.75
2022-10-08T13:24:43.285Z,1.05
2022-10-08T13:27:27.510Z,1.00
2022-10-08T13:29:58.302Z,1.42
2022-10-08T13:32:29.956Z,1.30
2022-10-08T13:35:02.374Z,1.35
2022-10-08T13:37:36.165Z,1.25
2022-10-08T13:40:18.847Z,1.65
2022-10-08T13:42:50.555Z,1.20
2022-10-08T13:45:23.519Z,1.10
2022-10-08T13:47:52.390Z,0.77
2022-10-08T13:50:21.903Z,1.33
2022-10-08T13:52:54.694Z,1.25
2022-10-08T13:55:27.652Z,1.10
2022-10-08T13:57:57.651Z,1.38
2022-10-08T14:00:28.176Z,1.20
2022-10-08T14:02:56.534Z,1.10
2022-10-08T14:05:26.332Z,1.35
2022-10-08T14:07:59.571Z,1.40
2022-10-08T14:10:28.049Z,1.30
2022-10-08T14:12:56.144Z,1.08
2022-10-08T14:15:24.431Z,1.15
2022-10-08T14:17:53.877Z,1.52
2022-10-08T14:20:22.103Z,1.00
2022-10-08T14:22:51.301Z,1.40
2022-10-08T14:25:23.986Z,1.40
2022-10-08T14:27:52.569Z,1.10
2022-10-08T14:30:21.057Z,0.90
2022-10-08T14:32:49.183Z,1.25
2022-10-08T14:35:18.888Z,1.25
2022-10-08T14:37:47.523Z,0.98
2022-10-08T14:40:19.688Z,1.30
2022-10-08T14:42:48.007Z,0.70
2022-10-08T14:45:16.716Z,1.40
2022-10-08T14:47:44.871Z,0.98
2022-10-08T14:50:13.526Z,1.50
2022-10-08T14:52:44.537Z,1.25
2022-10-08T14:55:14.036Z,1.27
2022-10-08T14:57:42.192Z,1.00
2022-10-08T15:00:13.101Z,1.02
2022-10-08T15:02:41.539Z,1.05
2022-10-08T15:05:10.446Z,1.02
2022-10-08T15:07:38.566Z,0.93
2022-10-08T15:10:09.817Z,0.93
2022-10-08T15:12:37.944Z,0.98
2022-10-08T15:15:07.559Z,1.38
2022-10-08T15:17:35.848Z,0.85
2022-10-08T15:20:04.402Z,1.08
2022-10-08T15:22:32.538Z,1.25
2022-10-08T15:25:00.656Z,0.90
2022-10-08T15:27:30.063Z,1.10
2022-10-08T15:29:58.260Z,1.42
2022-10-08T15:32:30.351Z,1.55
2022-10-08T15:34:58.901Z,1.02
2022-10-08T15:37:27.011Z,1.63
2022-10-08T15:39:55.100Z,1.73
2022-10-08T15:42:23.180Z,1.30
2022-10-08T15:44:53.620Z,1.60
2022-10-08T15:47:21.892Z,1.80
2022-10-08T15:49:50.096Z,1.77
2022-10-08T15:52:21.467Z,1.20
2022-10-08T15:54:49.921Z,1.35
2022-10-08T15:57:19.661Z,1.10
2022-10-08T15:59:47.803Z,1.55
2022-10-08T16:02:18.783Z,1.17
2022-10-08T16:04:48.526Z,1.10
2022-10-08T16:07:17.276Z,0.70
2022-10-08T16:09:45.475Z,1.33
2022-10-08T16:12:13.649Z,1.13
2022-10-08T16:14:41.783Z,1.30
2022-10-08T16:17:10.480Z,1.08
2022-10-08T16:19:40.025Z,1.67
2022-10-08T16:22:08.747Z,1.48
2022-10-08T16:24:36.935Z,1.45
2022-10-08T16:27:05.221Z,1.30
2022-10-08T16:29:33.294Z,1.45
2022-10-08T16:32:01.411Z,1.58
2022-10-08T16:34:31.620Z,1.60
2022-10-08T16:37:01.884Z,1.10
2022-10-08T16:39:30.021Z,1.50
2022-10-08T16:41:58.128Z,1.35
2022-10-08T16:44:26.464Z,1.90
2022-10-08T16:46:54.828Z,1.98
2022-10-08T16:49:27.108Z,2.38
2022-10-08T16:51:59.954Z,1.95
2022-10-08T16:54:30.230Z,1.98
2022-10-08T16:56:58.703Z,2.40
2022-10-08T16:59:29.819Z,2.47
2022-10-08T17:02:00.466Z,2.47
2022-10-08T17:04:34.821Z,2.88
2022-10-08T17:07:02.968Z,3.03
2022-10-08T17:09:32.599Z,3.03
2022-10-08T17:12:00.853Z,2.40
2022-10-08T17:14:30.347Z,2.72
2022-10-08T17:16:58.464Z,2.35
2022-10-08T17:19:26.588Z,2.22
2022-10-08T17:21:54.716Z,2.45
2022-10-08T17:24:22.982Z,2.30
2022-10-08T17:26:52.440Z,1.80
2022-10-08T17:29:20.590Z,1.63
2022-10-08T17:31:49.388Z,1.80
2022-10-08T17:34:17.524Z,2.05
2022-10-08T17:36:45.810Z,2.10
2022-10-08T17:39:15.126Z,2.30
2022-10-08T17:41:44.574Z,2.10
2022-10-08T17:44:14.564Z,2.05
2022-10-08T17:46:46.795Z,2.10
2022-10-08T17:49:15.754Z,1.70
2022-10-08T17:51:44.061Z,2.47
2022-10-08T17:54:14.482Z,2.00
2022-10-08T17:56:43.356Z,2.95
2022-10-08T17:59:16.409Z,2.85
2022-10-08T18:01:46.040Z,2.97
2022-10-08T18:04:17.443Z,3.20
2022-10-08T18:06:47.949Z,2.90
2022-10-08T18:09:19.254Z,2.88
2022-10-08T18:11:51.802Z,2.47
2022-10-08T18:14:22.538Z,2.50
2022-10-08T18:16:51.203Z,2.67
2022-10-08T18:19:19.909Z,2.83
2022-10-08T18:21:48.180Z,2.80
2022-10-08T18:24:17.647Z,2.83
2022-10-08T18:26:46.695Z,2.55
2022-10-08T18:29:15.825Z,2.70
2022-10-08T18:31:46.515Z,2.83
2022-10-08T18:34:18.576Z,2.72
2022-10-08T18:36:47.846Z,3.20
2022-10-08T18:39:18.629Z,3.28
2022-10-08T18:41:49.219Z,2.83
2022-10-08T18:44:20.671Z,3.63
2022-10-08T18:46:51.098Z,2.90
2022-10-08T18:49:23.787Z,3.33
2022-10-08T18:51:51.928Z,3.60
2022-10-08T18:54:20.304Z,3.47
2022-10-08T18:56:48.406Z,3.40
2022-10-08T18:59:18.360Z,3.90
2022-10-08T19:01:49.433Z,3.92
2022-10-08T19:04:21.133Z,4.40
2022-10-08T19:06:52.155Z,5.38
2022-10-08T19:09:20.702Z,5.38
2022-10-08T19:11:51.343Z,5.72
2022-10-08T19:14:21.957Z,6.78
2022-10-08T19:16:51.992Z,7.53
2022-10-08T19:19:22.202Z,8.85
2022-10-08T19:21:52.034Z,8.70
2022-10-08T19:24:22.816Z,8.52
2022-10-08T19:26:51.583Z,8.32
2022-10-08T19:29:23.082Z,9.40
2022-10-08T19:31:53.275Z,9.98
2022-10-08T19:34:26.057Z,7.63
2022-10-08T19:36:54.893Z,8.48
2022-10-08T19:39:26.525Z,7.90
2022-10-08T19:41:55.890Z,5.95
2022-10-08T19:44:25.779Z,5.50
2022-10-08T19:46:55.353Z,16.67
2022-10-08T19:49:23.979Z,13.43
2022-10-08T19:51:53.623Z,11.17
2022-10-08T19:54:21.691Z,11.03
2022-10-08T19:56:49.837Z,9.47
2022-10-08T19:59:18.901Z,9.33
2022-10-08T20:01:47.110Z,9.37
2022-10-08T20:04:16.864Z,9.43
2022-10-08T20:06:45.106Z,8.90
2022-10-08T20:09:15.255Z,9.53
2022-10-08T20:11:44.992Z,9.33
2022-10-08T20:14:15.030Z,9.03
2022-10-08T20:16:44.336Z,8.37
2022-10-08T20:19:20.053Z,8.10
2022-10-08T20:21:49.846Z,8.17
2022-10-08T20:24:20.035Z,8.37
2022-10-08T20:26:49.353Z,11.70
2022-10-08T20:29:20.095Z,12.57
2022-10-08T20:31:50.644Z,11.93
2022-10-08T20:34:23.640Z,10.57
2022-10-08T20:36:53.120Z,9.57
2022-10-08T20:39:22.982Z,8.87
2022-10-08T20:41:51.886Z,8.20
2022-10-08T20:44:21.095Z,9.00
2022-10-08T20:46:51.715Z,12.80
2022-10-08T20:49:21.435Z,11.90
2022-10-08T20:51:49.592Z,15.50
2022-10-08T20:54:18.634Z,17.17
2022-10-08T20:56:46.829Z,20.03
2022-10-08T20:59:19.291Z,20.80
2022-10-08T21:01:50.375Z,18.57
2022-10-08T21:04:19.337Z,16.43
2022-10-08T21:06:51.261Z,18.50
2022-10-08T21:09:21.870Z,16.77
2022-10-08T21:11:50.236Z,16.40
2022-10-08T21:14:21.413Z,16.37
2022-10-08T21:16:50.607Z,15.00
2022-10-08T21:19:23.057Z,13.80
2022-10-08T21:21:53.399Z,13.87
2022-10-08T21:24:21.784Z,11.53
2022-10-08T21:26:49.890Z,15.40
2022-10-08T21:29:17.994Z,10.00
2022-10-08T21:31:46.181Z,9.17
2022-10-08T21:34:14.445Z,8.90
2022-10-08T21:36:44.521Z,8.37
2022-10-08T21:39:18.243Z,9.13
2022-10-08T21:41:47.167Z,9.53
2022-10-08T21:44:15.730Z,8.37
2022-10-08T21:46:44.563Z,8.80
2022-10-08T21:49:15.356Z,7.77
2022-10-08T21:51:44.079Z,9.23
2022-10-08T21:54:12.458Z,9.07
2022-10-08T21:56:42.962Z,8.07
2022-10-08T21:59:15.407Z,7.93
2022-10-08T22:01:45.650Z,6.10
2022-10-08T22:04:16.265Z,6.37
2022-10-08T22:06:48.133Z,8.07
2022-10-08T22:09:19.116Z,8.23
2022-10-08T22:11:49.547Z,9.13
2022-10-08T22:14:18.458Z,6.73
2022-10-08T22:16:47.299Z,6.83
2022-10-08T22:19:16.659Z,6.33
2022-10-08T22:21:45.548Z,6.43
2022-10-08T22:24:14.413Z,6.70
2022-10-08T22:26:46.144Z,6.67
2022-10-08T22:29:16.440Z,6.83
2022-10-08T22:31:44.649Z,10.33
2022-10-08T22:34:13.139Z,15.80
2022-10-08T22:36:45.321Z,9.47
2022-10-08T22:39:14.740Z,10.93
2022-10-08T22:41:44.017Z,9.83
2022-10-08T22:44:12.162Z,7.47
2022-10-08T22:46:41.882Z,7.93
2022-10-08T22:49:12.206Z,7.70
2022-10-08T22:51:41.030Z,6.73
2022-10-08T22:54:09.984Z,7.07
2022-10-08T22:56:38.143Z,7.43
2022-10-08T22:59:06.256Z,8.47
2022-10-08T23:01:34.374Z,23.87
2022-10-08T23:04:03.863Z,39.10
2022-10-08T23:06:36.506Z,27.20
2022-10-08T23:09:08.037Z,12.97
2022-10-08T23:11:36.588Z,8.53
2022-10-08T23:14:06.443Z,11.57
2022-10-08T23:16:35.853Z,8.17
2022-10-08T23:19:08.549Z,5.63
2022-10-08T23:21:37.900Z,8.30
2022-10-08T23:24:06.718Z,9.27
2022-10-08T23:26:36.017Z,8.63
2022-10-08T23:29:05.518Z,5.20
2022-10-08T23:31:36.248Z,10.00
2022-10-08T23:34:08.498Z,8.53
2022-10-08T23:36:39.525Z,10.97
2022-10-08T23:39:11.323Z,8.23
2022-10-08T23:41:39.479Z,5.20
2022-10-08T23:44:08.777Z,6.03
2022-10-08T23:46:36.858Z,6.50
2022-10-08T23:49:06.900Z,10.47
2022-10-08T23:51:35.897Z,10.90
2022-10-08T23:54:04.259Z,6.63
2022-10-08T23:56:32.406Z,10.53
2022-10-08T23:59:00.736Z,11.73
